Time;durP1;ratioP1;P1;durP2;ratioP2;P2;SDS_P1;SDS_P2;PMS_P1;PMS_P2;Temp;Humidity;BMP_temperature;BMP_pressure;BME280_temperature;BME280_humidity;BME280_pressure;Samples;Min_cycle;Max_cycle;Signal;HPM_P1;HPM_P2
2023/10/20 00:02:03;;;;;;;6.88;4.13;;;;;;;17.61;100.00;97496.66;5036743;28;20052;-68
2023/10/20 00:04:31;;;;;;;4.90;1.70;;;;;;;17.53;100.00;97489.72;5033702;28;20049;-67
2023/10/20 00:06:59;;;;;;;5.10;1.52;;;;;;;17.44;100.00;97483.94;5035366;28;20053;-67
2023/10/20 00:09:26;;;;;;;3.20;0.70;;;;;;;17.36;100.00;97479.81;5034884;28;20521;-68
2023/10/20 00:11:53;;;;;;;1.67;0.60;;;;;;;17.54;100.00;97468.25;5035255;28;20056;-70
2023/10/20 00:14:21;;;;;;;3.45;1.10;;;;;;;17.46;100.00;97467.63;5029634;28;20057;-68
2023/10/20 00:16:48;;;;;;;2.08;0.80;;;;;;;17.53;100.00;97453.53;5033026;28;20065;-67
2023/10/20 00:19:17;;;;;;;3.83;0.80;;;;;;;17.47;100.00;97460.06;5035013;28;20057;-69
2023/10/20 00:21:45;;;;;;;3.92;0.70;;;;;;;17.31;100.00;97458.03;5033092;28;20065;-67
2023/10/20 00:24:12;;;;;;;3.17;0.77;;;;;;;17.35;100.00;97444.84;5034591;28;20057;-67
2023/10/20 00:26:40;;;;;;;4.13;0.90;;;;;;;17.29;100.00;97437.47;5034918;28;20057;-67
2023/10/20 00:29:08;;;;;;;3.88;0.77;;;;;;;17.05;100.00;97425.75;5033711;28;20564;-68
2023/10/20 00:31:35;;;;;;;2.38;0.68;;;;;;;17.20;100.00;97435.31;5031488;28;20057;-68
2023/10/20 00:34:02;;;;;;;3.33;0.70;;;;;;;17.04;100.00;97443.66;5032470;28;20060;-68
2023/10/20 00:36:30;;;;;;;3.35;0.80;;;;;;;17.01;100.00;97450.09;5030968;28;20050;-67
2023/10/20 00:38:57;;;;;;;3.28;0.60;;;;;;;17.08;100.00;97438.78;5033512;28;20033;-68
2023/10/20 00:41:25;;;;;;;2.67;0.80;;;;;;;17.04;100.00;97440.09;5033663;28;20057;-68
2023/10/20 00:43:53;;;;;;;3.25;0.70;;;;;;;16.96;100.00;97439.50;5029906;28;20054;-66
2023/10/20 00:46:22;;;;;;;1.93;0.73;;;;;;;17.05;100.00;97447.97;5015653;28;20045;-67
2023/10/20 00:48:49;;;;;;;2.10;0.60;;;;;;;17.09;100.00;97448.69;5030600;28;20054;-68
2023/10/20 00:51:18;;;;;;;2.90;0.70;;;;;;;17.08;100.00;97449.91;5032319;28;20049;-67
2023/10/20 00:53:47;;;;;;;4.30;0.90;;;;;;;17.05;100.00;97452.78;5016643;28;20527;-67
2023/10/20 00:56:15;;;;;;;3.28;0.73;;;;;;;17.03;100.00;97446.88;5020615;28;20053;-69
2023/10/20 00:58:43;;;;;;;3.92;0.68;;;;;;;16.88;100.00;97446.44;4998686;28;20065;-67
2023/10/20 01:01:11;;;;;;;1.40;0.70;;;;;;;16.87;100.00;97447.66;5035314;28;20045;-62
2023/10/20 01:03:39;;;;;;;3.03;0.70;;;;;;;16.56;100.00;97447.19;5031646;28;20049;-62
2023/10/20 01:06:07;;;;;;;1.30;0.57;;;;;;;16.60;100.00;97441.53;5035799;28;20053;-62
2023/10/20 01:08:35;;;;;;;1.48;0.50;;;;;;;16.62;100.00;97434.34;5033113;28;20041;-62
2023/10/20 01:11:02;;;;;;;1.60;0.50;;;;;;;16.35;100.00;97422.63;5034233;28;20064;-63
2023/10/20 01:13:30;;;;;;;1.85;0.65;;;;;;;16.46;100.00;97412.09;5016567;28;20072;-62
2023/10/20 01:16:00;;;;;;;1.63;0.40;;;;;;;16.41;100.00;97397.91;5028339;28;20053;-63
2023/10/20 01:18:27;;;;;;;3.35;0.70;;;;;;;16.29;100.00;97402.16;5034081;28;20445;-62
2023/10/20 01:20:55;;;;;;;2.55;0.50;;;;;;;16.29;100.00;97409.69;5034471;28;20049;-67
2023/10/20 01:23:22;;;;;;;2.05;0.43;;;;;;;16.36;100.00;97417.88;5034660;28;20045;-68
2023/10/20 01:25:53;;;;;;;2.75;0.40;;;;;;;16.39;100.00;97412.22;5031783;28;20056;-68
2023/10/20 01:28:20;;;;;;;2.17;0.40;;;;;;;16.28;100.00;97403.38;5030449;28;20050;-67
2023/10/20 01:30:47;;;;;;;1.80;0.40;;;;;;;16.43;100.00;97390.72;5034465;28;20053;-68
2023/10/20 01:33:15;;;;;;;3.40;0.40;;;;;;;16.46;100.00;97370.44;5031753;28;20056;-68
2023/10/20 01:35:43;;;;;;;1.00;0.30;;;;;;;16.59;100.00;97365.75;5033828;28;20045;-62
2023/10/20 01:38:10;;;;;;;0.95;0.20;;;;;;;16.62;100.00;97364.09;5034393;28;20049;-63
2023/10/20 01:40:37;;;;;;;3.67;0.40;;;;;;;16.61;100.00;97351.41;5000123;28;20041;-62
2023/10/20 01:43:05;;;;;;;1.75;0.40;;;;;;;16.61;100.00;97341.09;5039766;28;20112;-62
2023/10/20 01:45:32;;;;;;;1.70;0.30;;;;;;;16.56;100.00;97344.38;5053671;28;20055;-62
2023/10/20 01:48:01;;;;;;;1.38;0.40;;;;;;;16.29;100.00;97343.03;5034676;28;20063;-61
2023/10/20 01:50:28;;;;;;;2.47;0.50;;;;;;;16.37;100.00;97341.66;5032813;28;20050;-63
2023/10/20 01:52:57;;;;;;;1.30;0.60;;;;;;;16.34;100.00;97325.84;5054237;28;20057;-62
2023/10/20 01:55:24;;;;;;;1.67;0.50;;;;;;;16.53;100.00;97327.78;5044853;28;20041;-61
2023/10/20 01:57:52;;;;;;;1.83;0.50;;;;;;;16.55;100.00;97333.69;5035329;28;20065;-62
2023/10/20 02:00:19;;;;;;;1.40;0.60;;;;;;;16.65;100.00;97327.88;5018793;28;20045;-63
2023/10/20 02:02:47;;;;;;;1.52;0.50;;;;;;;16.62;100.00;97312.09;5018436;28;20053;-61
2023/10/20 02:05:15;;;;;;;1.25;0.35;;;;;;;16.72;100.00;97302.69;5019199;28;20512;-63
2023/10/20 02:07:42;;;;;;;1.23;0.35;;;;;;;16.72;100.00;97291.56;5052241;28;20049;-62
2023/10/20 02:10:10;;;;;;;1.35;0.55;;;;;;;16.71;100.00;97286.44;5053440;28;20040;-62
2023/10/20 02:12:38;;;;;;;1.27;0.32;;;;;;;16.49;100.00;97282.66;5018575;28;20048;-61
2023/10/20 02:15:06;;;;;;;0.63;0.40;;;;;;;16.24;100.00;97288.00;5034535;28;20056;-62
2023/10/20 02:17:37;;;;;;;3.22;0.43;;;;;;;16.43;100.00;97285.16;5034271;28;20052;-63
2023/10/20 02:20:05;;;;;;;2.28;0.32;;;;;;;16.31;100.00;97283.06;5034771;28;20042;-63
2023/10/20 02:22:33;;;;;;;1.02;0.52;;;;;;;16.46;100.00;97256.53;5053641;28;20393;-63
2023/10/20 02:25:03;;;;;;;;;;;;;;;16.42;100.00;97250.25;5050172;28;20053;-63
2023/10/20 02:27:31;;;;;;;5.63;0.55;;;;;;;16.43;100.00;97245.47;5032880;28;20033;-63
2023/10/20 02:29:59;;;;;;;1.80;0.52;;;;;;;16.31;100.00;97240.63;5034171;28;20044;-63
2023/10/20 02:32:26;;;;;;;3.03;0.60;;;;;;;16.36;100.00;97253.97;5034918;28;20488;-61
2023/10/20 02:34:54;;;;;;;4.68;0.73;;;;;;;16.42;100.00;97246.69;5034948;28;20060;-62
2023/10/20 02:37:22;;;;;;;2.15;0.50;;;;;;;16.32;100.00;97256.09;5052948;28;20044;-62
2023/10/20 02:39:50;;;;;;;2.22;0.68;;;;;;;16.31;100.00;97260.06;5052725;28;20048;-63
2023/10/20 02:42:17;;;;;;;1.13;0.38;;;;;;;16.35;100.00;97260.75;5052889;28;20055;-62
2023/10/20 02:44:44;;;;;;;3.50;0.65;;;;;;;16.33;100.00;97257.63;5035006;28;20057;-62
2023/10/20 02:47:12;;;;;;;3.08;0.60;;;;;;;16.27;100.00;97260.16;5034030;28;20093;-62
2023/10/20 02:49:39;;;;;;;2.67;0.50;;;;;;;16.25;100.00;97256.25;5048066;28;20060;-64
2023/10/20 02:52:07;;;;;;;1.25;0.40;;;;;;;16.27;100.00;97264.91;5048868;28;20053;-62
2023/10/20 02:54:34;;;;;;;1.63;0.57;;;;;;;16.24;100.00;97251.91;5052930;28;20136;-62
2023/10/20 02:57:05;;;;;;;2.70;0.50;;;;;;;16.18;100.00;97253.66;5033133;28;20453;-63
2023/10/20 02:59:32;;;;;;;1.52;0.45;;;;;;;16.25;100.00;97243.13;5052895;28;20049;-62
2023/10/20 03:02:00;;;;;;;1.23;0.60;;;;;;;16.48;100.00;97231.88;5026394;28;20492;-62
2023/10/20 03:04:29;;;;;;;1.45;0.50;;;;;;;16.38;100.00;97232.91;5032395;28;20057;-63
2023/10/20 03:06:56;;;;;;;3.42;0.50;;;;;;;16.25;100.00;97229.25;5034386;28;20053;-63
2023/10/20 03:09:24;;;;;;;1.27;0.50;;;;;;;16.16;100.00;97231.09;5052290;28;20128;-62
2023/10/20 03:11:51;;;;;;;1.80;0.43;;;;;;;16.08;100.00;97224.94;5034451;28;20045;-61
2023/10/20 03:14:19;;;;;;;1.75;0.50;;;;;;;16.22;100.00;97218.22;5052786;28;20071;-62
2023/10/20 03:16:46;;;;;;;2.17;0.30;;;;;;;16.14;100.00;97217.66;5051181;28;20074;-63
2023/10/20 03:19:14;;;;;;;1.92;0.40;;;;;;;16.18;100.00;97220.34;5034615;28;20064;-62
2023/10/20 03:21:42;;;;;;;1.95;0.40;;;;;;;16.26;100.00;97228.06;5031919;28;20037;-62
2023/10/20 03:24:09;;;;;;;2.90;0.60;;;;;;;16.26;100.00;97222.50;5033827;28;20057;-62
2023/10/20 03:26:37;;;;;;;3.22;0.57;;;;;;;16.33;100.00;97215.97;5048292;28;20052;-63
2023/10/20 03:29:04;;;;;;;2.53;0.65;;;;;;;16.26;100.00;97214.16;5051868;28;20044;-63
2023/10/20 03:31:33;;;;;;;2.17;0.60;;;;;;;16.22;100.00;97201.56;5052029;28;20048;-62
2023/10/20 03:34:01;;;;;;;2.92;0.50;;;;;;;16.20;100.00;97198.44;5047411;28;20669;-62
2023/10/20 03:36:28;;;;;;;2.53;0.65;;;;;;;16.35;100.00;97194.09;5051972;28;20053;-63
2023/10/20 03:38:56;;;;;;;2.35;0.73;;;;;;;16.45;100.00;97199.38;5019016;28;20068;-62
2023/10/20 03:41:25;;;;;;;1.90;0.47;;;;;;;16.33;100.00;97186.22;5051951;28;20060;-62
2023/10/20 03:43:53;;;;;;;2.67;0.50;;;;;;;16.37;100.00;97170.22;5052223;28;20068;-63
2023/10/20 03:46:21;;;;;;;3.05;0.60;;;;;;;16.40;100.00;97177.69;5034784;28;20052;-64
2023/10/20 03:48:48;;;;;;;1.48;0.50;;;;;;;16.29;100.00;97187.50;5052219;28;20177;-62
2023/10/20 03:51:17;;;;;;;1.17;0.60;;;;;;;16.16;100.00;97192.97;5029526;28;20053;-63
2023/10/20 03:53:50;;;;;;;0.73;0.40;;;;;;;16.22;100.00;97201.56;5031311;28;20042;-63
2023/10/20 03:56:22;;;;;;;4.20;0.60;;;;;;;16.16;100.00;97206.09;5051678;28;20400;-63
2023/10/20 03:58:50;;;;;;;4.20;0.60;;;;;;;16.11;100.00;97228.84;5034080;28;20048;-63
2023/10/20 04:01:18;;;;;;;1.35;0.70;;;;;;;16.16;100.00;97225.53;5033477;28;20049;-62
2023/10/20 04:03:50;;;;;;;1.70;0.80;;;;;;;16.13;100.00;97232.72;5049517;28;20064;-62
2023/10/20 04:06:19;;;;;;;1.33;0.70;;;;;;;16.07;100.00;97245.59;5050935;28;20040;-63
2023/10/20 04:08:46;;;;;;;2.70;0.90;;;;;;;16.00;100.00;97237.44;5050202;28;20045;-62
2023/10/20 04:11:14;;;;;;;1.83;0.60;;;;;;;16.01;100.00;97233.44;5051683;28;20525;-62
2023/10/20 04:13:41;;;;;;;1.33;0.60;;;;;;;16.09;100.00;97232.03;5050392;28;20440;-63
2023/10/20 04:16:12;;;;;;;2.33;0.88;;;;;;;16.07;100.00;97242.81;5052132;28;20049;-62
2023/10/20 04:18:40;;;;;;;2.03;0.93;;;;;;;15.78;100.00;97251.03;5051948;28;20420;-62
2023/10/20 04:21:13;;;;;;;2.65;0.93;;;;;;;15.86;100.00;97250.84;5030465;28;20056;-62
2023/10/20 04:23:43;;;;;;;2.45;1.10;;;;;;;15.87;100.00;97244.09;5050891;28;20078;-64
2023/10/20 04:26:21;;;;;;;4.65;1.20;;;;;;;16.13;100.00;97254.16;5034500;28;20041;-62
2023/10/20 04:29:07;;;;;;;3.75;1.42;;;;;;;16.07;100.00;97272.56;5054419;28;20526;-62
2023/10/20 04:53:45;;;;;;;;;;;;;;;15.99;100.00;97296.16;5036371;28;19929;-62
2023/10/20 05:01:20;;;;;;;;;;;;;;;16.08;100.00;97312.97;5048301;28;19929;-62
2023/10/20 05:03:52;;;;;;;;;;;;;;;15.94;100.00;97307.75;5056029;28;19921;-66
2023/10/20 05:06:22;;;;;;;;;;;;;;;16.08;100.00;97326.88;5054772;28;19927;-62
2023/10/20 05:08:50;;;;;;;;;;;;;;;15.94;100.00;97319.66;5054573;28;19921;-63
2023/10/20 05:11:17;;;;;;;;;;;;;;;16.01;100.00;97313.94;5054976;28;19980;-62
2023/10/20 05:13:44;;;;;;;;;;;;;;;16.03;100.00;97325.41;5055020;28;19924;-64
2023/10/20 05:16:12;;;;;;;;;;;;;;;16.05;100.00;97331.31;5050255;28;20295;-64
2023/10/20 05:18:40;;;;;;;;;;;;;;;16.09;100.00;97320.13;5036071;28;20399;-63
2023/10/20 05:21:12;;;;;;;;;;;;;;;16.00;100.00;97308.81;5054822;28;19937;-64
2023/10/20 05:23:40;;;;;;;;;;;;;;;16.03;100.00;97311.50;5055569;28;19928;-63
2023/10/20 05:26:08;;;;;;;;;;;;;;;16.08;100.00;97296.31;5018169;28;19921;-64
2023/10/20 05:28:35;;;;;;;;;;;;;;;16.15;100.00;97299.72;5050066;28;19928;-62
2023/10/20 05:31:03;;;;;;;;;;;;;;;16.12;100.00;97300.59;5050410;28;19925;-63
2023/10/20 05:33:30;;;;;;;;;;;;;;;16.01;100.00;97288.16;5050684;28;19921;-63
2023/10/20 05:36:01;;;;;;;;;;;;;;;16.07;100.00;97292.78;5040927;28;19921;-64
2023/10/20 05:38:29;;;;;;;;;;;;;;;16.11;100.00;97276.03;5033705;28;19928;-64
2023/10/20 05:40:58;;;;;;;;;;;;;;;16.13;100.00;97276.38;5055084;28;19921;-64
2023/10/20 05:43:25;;;;;;;;;;;;;;;16.26;100.00;97269.72;5053916;28;19928;-63
2023/10/20 05:45:52;;;;;;;;;;;;;;;16.21;100.00;97273.00;5034170;28;20455;-63
2023/10/20 05:48:20;;;;;;;;;;;;;;;16.24;100.00;97276.91;5035764;28;19921;-63
2023/10/20 05:50:47;;;;;;;;;;;;;;;16.29;100.00;97282.72;5054252;28;20008;-64
2023/10/20 05:53:14;;;;;;;;;;;;;;;16.17;100.00;97283.41;5032946;28;19921;-64
2023/10/20 05:55:42;;;;;;;;;;;;;;;16.17;100.00;97282.63;5035539;28;19939;-63
2023/10/20 05:58:09;;;;;;;;;;;;;;;16.24;100.00;97285.22;5054073;28;19920;-63
2023/10/20 06:00:37;;;;;;;;;;;;;;;16.34;100.00;97290.53;5053848;28;19920;-63
2023/10/20 06:03:24;;;;;;;;;;;;;;;16.34;100.00;97281.41;5039260;28;19943;-64
2023/10/20 06:05:52;;;;;;;;;;;;;;;16.21;100.00;97284.13;5053609;28;19929;-63
2023/10/20 06:08:21;;;;;;;;;;;;;;;16.08;100.00;97288.78;5018293;28;19925;-63
2023/10/20 06:10:49;;;;;;;;;;;;;;;16.09;100.00;97297.91;5036361;28;19931;-63
2023/10/20 06:13:16;;;;;;;;;;;;;;;16.12;100.00;97300.59;5052990;28;19920;-64
2023/10/20 06:15:44;;;;;;;;;;;;;;;16.25;100.00;97293.13;5029820;28;19928;-64
2023/10/20 06:18:11;;;;;;;;;;;;;;;16.13;100.00;97293.03;5053261;28;19928;-63
2023/10/20 06:20:55;;;;;;;;;;;;;;;16.12;100.00;97302.59;5052827;28;19920;-63
2023/10/20 06:23:31;;;;;;;;;;;;;;;16.10;100.00;97297.47;5052273;28;19924;-64
2023/10/20 06:25:59;;;;;;;;;;;;;;;16.25;100.00;97301.47;5049205;28;19925;-65
2023/10/20 06:28:26;;;;;;;;;;;;;;;16.25;100.00;97293.13;5050166;28;19924;-63
2023/10/20 06:31:00;;;;;;;;;;;;;;;16.06;100.00;97301.53;5027494;28;19921;-63
2023/10/20 06:33:32;;;;;;;;;;;;;;;16.09;100.00;97295.13;5049039;28;20461;-61
2023/10/20 06:36:10;;;;;;;;;;;;;;;16.11;100.00;97289.94;5032156;28;20281;-62
2023/10/20 06:39:15;;;;;;;;;;;;;;;16.19;100.00;97291.31;5029180;28;19920;-63
2023/10/20 06:41:43;;;;;;;;;;;;;;;16.14;100.00;97289.84;5050429;28;19920;-61
2023/10/20 06:44:19;;;;;;;;;;;;;;;16.10;100.00;97283.59;5017706;28;19921;-62
2023/10/20 06:46:49;;;;;;;;;;;;;;;16.02;100.00;97281.41;5033942;28;19921;-63
2023/10/20 06:49:19;;;;;;;;;;;;;;;16.04;100.00;97279.75;5051228;28;19928;-62
2023/10/20 06:51:54;;;;;;;;;;;;;;;16.13;100.00;97293.81;5052220;28;19955;-61
2023/10/20 06:54:21;;;;;;;;;;;;;;;16.44;100.00;97302.59;5035618;28;19924;-70
2023/10/20 06:56:48;;;;;;;;;;;;;;;16.48;100.00;97303.31;5044316;28;19928;-71
2023/10/20 06:59:16;;;;;;;;;;;;;;;16.40;100.00;97299.13;5031654;28;19921;-61
2023/10/20 07:01:43;;;;;;;;;;;;;;;16.47;100.00;97310.09;5050562;28;19920;-71
2023/10/20 07:04:12;;;;;;;;;;;;;;;16.55;100.00;97317.81;5048188;28;20279;-70
2023/10/20 07:06:55;;;;;;;;;;;;;;;16.65;100.00;97324.31;5028542;28;19936;-71
2023/10/20 07:09:30;;;;;;;;;;;;;;;16.62;100.00;97328.75;5050818;28;19928;-71
2023/10/20 07:11:57;;;;;;;;;;;;;;;16.55;100.00;97323.38;5050959;28;20374;-69
2023/10/20 07:14:25;;;;;;;;;;;;;;;16.59;100.00;97331.63;5029104;28;19928;-72
2023/10/20 07:16:54;;;;;;;;;;;;;;;16.47;100.00;97324.78;5049630;28;19929;-68
2023/10/20 07:19:21;;;;;;;;;;;;;;;16.55;100.00;97317.03;5048389;28;19932;-72
2023/10/20 07:21:50;;;;;;;;;;;;;;;16.54;100.00;97324.59;5031272;28;19936;-70
2023/10/20 07:24:17;;;;;;;;;;;;;;;16.43;100.00;97326.81;5031382;28;19920;-71
2023/10/20 07:26:44;;;;;;;;;;;;;;;16.47;100.00;97335.09;5034175;28;19932;-71
2023/10/20 07:29:12;;;;;;;;;;;;;;;16.57;100.00;97322.94;5049979;28;19928;-72
2023/10/20 07:31:44;;;;;;;;;;;;;;;16.48;100.00;97328.31;5015651;28;20323;-72
2023/10/20 07:34:17;;;;;;;;;;;;;;;16.55;100.00;97325.38;5048889;28;20462;-70
2023/10/20 07:36:47;;;;;;;;;;;;;;;16.58;100.00;97333.59;5014910;28;20023;-70
2023/10/20 07:39:18;;;;;;;;;;;;;;;16.59;100.00;97331.63;5028800;28;19932;-71
2023/10/20 07:41:48;;;;;;;;;;;;;;;16.50;100.00;97323.91;5030994;28;19947;-69
2023/10/20 07:44:16;;;;;;;;;;;;;;;16.51;100.00;97333.78;5047115;28;19921;-70
2023/10/20 07:46:43;;;;;;;;;;;;;;;16.45;100.00;97351.38;5049142;28;20300;-68
2023/10/20 07:49:13;;;;;;;;;;;;;;;16.42;100.00;97346.69;5032199;28;19940;-68
2023/10/20 07:51:41;;;;;;;;;;;;;;;16.23;100.00;97347.56;5049946;28;19932;-69
2023/10/20 07:54:08;;;;;;;;;;;;;;;16.15;100.00;97354.47;5012938;28;19921;-67
2023/10/20 07:56:36;;;;;;;;;;;;;;;16.36;100.00;97356.75;5030717;28;19936;-68
2023/10/20 07:59:07;;;;;;;;;;;;;;;16.37;100.00;97356.31;5025916;28;19951;-67
2023/10/20 08:01:35;;;;;;;;;;;;;;;16.43;100.00;97362.94;5032238;28;19921;-67
2023/10/20 08:04:03;;;;;;;;;;;;;;;16.46;100.00;97358.50;5029600;28;20505;-67
2023/10/20 08:06:31;;;;;;;;;;;;;;;16.46;100.00;97345.41;5054120;28;19944;-67
2023/10/20 08:08:58;;;;;;;;;;;;;;;16.45;100.00;97345.81;5053163;28;19928;-68
2023/10/20 08:11:25;;;;;;;;;;;;;;;16.53;100.00;97361.13;5054852;28;19927;-67
2023/10/20 08:13:53;;;;;;;;;;;;;;;16.46;100.00;97370.44;5036007;28;19939;-67
2023/10/20 08:16:21;;;;;;;;;;;;;;;16.51;100.00;97371.91;5052287;28;19920;-71
2023/10/20 08:19:18;;;;;;;;;;;;;;;16.47;100.00;97383.13;5054568;28;19928;-67
2023/10/20 08:21:48;;;;;;;;;;;;;;;16.60;100.00;97380.41;5053835;28;19929;-67
2023/10/20 08:24:15;;;;;;;;;;;;;;;16.55;100.00;97394.81;5053816;28;20260;-67
2023/10/20 08:26:43;;;;;;;;;;;;;;;16.50;100.00;97398.91;5034495;28;19932;-67
2023/10/20 08:29:13;;;;;;;;;;;;;;;16.47;99.88;97390.66;5050546;28;19921;-69
2023/10/20 08:31:47;;;;;;;;;;;;;;;16.44;99.77;97385.94;5053526;28;19924;-66
2023/10/20 08:34:14;;;;;;;;;;;;;;;16.35;100.00;97378.19;5053683;28;19924;-67
2023/10/20 08:36:47;;;;;;;;;;;;;;;16.66;98.77;97381.47;5054834;28;19931;-69
2023/10/20 08:39:27;;;;;;;;;;;;;;;16.57;98.17;97387.63;5051348;28;19932;-68
2023/10/20 08:42:02;;;;;;;;;;;;;;;16.64;98.34;97378.34;5017252;28;19924;-69
2023/10/20 08:44:33;;;;;;;;;;;;;;;16.75;98.12;97384.41;5045596;28;19928;-65
2023/10/20 08:47:19;;;;;;;;;;;;;;;16.74;98.25;97385.63;5031019;28;19928;-69
2023/10/20 08:50:02;;;;;;;;;;;;;;;16.74;97.11;97380.06;5023879;28;19932;-68
2023/10/20 08:52:46;;;;;;;;;;;;;;;16.60;97.35;97377.63;5036735;28;19924;-67
2023/10/20 08:55:18;;;;;;;;;;;;;;;16.94;95.63;97391.09;5054716;28;19928;-66
2023/10/20 08:57:49;;;;;;;;;;;;;;;16.94;95.44;97380.75;5047653;28;20281;-65
2023/10/20 09:00:22;;;;;;;;;;;;;;;16.99;96.11;97388.56;5032989;28;19927;-66
2023/10/20 09:02:49;;;;;;;;;;;;;;;16.90;95.58;97388.41;5051684;28;19935;-67
2023/10/20 09:05:21;;;;;;;;;;;;;;;16.91;95.20;97391.97;5050757;28;19936;-65
2023/10/20 09:07:53;;;;;;;;;;;;;;;17.07;94.31;97401.06;5053460;28;19932;-69
2023/10/20 09:10:20;;;;;;;;;;;;;;;17.16;94.25;97404.00;5050976;28;19928;-69
2023/10/20 09:12:47;;;;;;;;;;;;;;;17.14;93.31;97400.88;5048617;28;19921;-66
2023/10/20 09:15:15;;;;;;;;;;;;;;;17.03;92.89;97414.28;5032151;28;19929;-66
2023/10/20 09:17:42;;;;;;;;;;;;;;;17.18;92.65;97401.56;5049158;28;19928;-68
2023/10/20 09:20:14;;;;;;;;;;;;;;;17.13;92.22;97413.22;5050424;28;19928;-66
2023/10/20 09:22:41;;;;;;;;;;;;;;;16.88;93.24;97405.53;5033283;28;19932;-68
2023/10/20 09:25:10;;;;;;;;;;;;;;;17.05;93.42;97411.84;5051975;28;19920;-68
2023/10/20 09:27:40;;;;;;;;;;;;;;;17.39;91.32;97412.16;5030739;28;19928;-70
2023/10/20 09:30:14;;;;;;;;;;;;;;;17.24;91.71;97410.19;5033108;28;19928;-67
2023/10/20 09:32:41;;;;;;;;;;;;;;;17.14;92.63;97411.25;5052071;28;19935;-68
2023/10/20 09:35:11;;;;;;;;;;;;;;;17.12;92.84;97408.88;5035105;28;19920;-69
2023/10/20 09:37:44;;;;;;;;;;;;;;;17.25;92.57;97404.16;5033303;28;20339;-66
2023/10/20 09:40:11;;;;;;;;;;;;;;;17.36;92.35;97407.47;5051187;28;19939;-68
2023/10/20 09:42:52;;;;;;;;;;;;;;;17.44;91.42;97402.47;5050998;28;19935;-68
2023/10/20 09:45:21;;;;;;;;;;;;;;;17.40;90.87;97408.13;5031218;28;19924;-67
2023/10/20 09:47:52;;;;;;;;;;;;;;;17.29;91.56;97413.22;5052725;28;19947;-66
2023/10/20 09:50:20;;;;;;;;;;;;;;;17.37;91.91;97409.00;5050898;28;19930;-68
2023/10/20 09:52:51;;;;;;;;;;;;;;;17.43;91.65;97420.41;5051805;28;19928;-67
2023/10/20 09:55:32;;;;;;;;;;;;;;;17.76;91.58;97424.69;5051047;28;19920;-68
2023/10/20 09:58:02;;;;;;;;;;;;;;;17.84;91.67;97428.81;5028552;28;19921;-67
2023/10/20 10:00:30;;;;;;;;;;;;;;;17.83;91.01;97432.81;5033687;28;19924;-67
2023/10/20 10:02:59;;;;;;;;;;;;;;;18.04;89.62;97434.22;5051766;28;20355;-68
2023/10/20 10:05:27;;;;;;;;;;;;;;;18.04;88.60;97434.22;5052443;28;19931;-67
2023/10/20 10:08:03;;;;;;;;;;;;;;;18.19;88.63;97430.56;5027072;28;19928;-69
2023/10/20 10:10:31;;;;;;;;;;;;;;;18.20;88.33;97440.47;5035243;28;19920;-68
2023/10/20 10:13:05;;;;;;;;;;;;;;;17.97;88.63;97433.19;5051972;28;20398;-68
2023/10/20 10:15:43;;;;;;;;;;;;;;;18.10;88.66;97436.00;5020471;28;19921;-68
2023/10/20 10:18:11;;;;;;;;;;;;;;;18.07;88.23;97445.25;5033802;28;19932;-65
2023/10/20 10:20:46;;;;;;;;;;;;;;;17.85;90.13;97449.88;5051174;28;19931;-70
2023/10/20 10:23:16;;;;;;;;;;;;;;;17.82;91.73;97453.53;5035149;28;19936;-68
2023/10/20 10:25:44;;;;;;;;;;;;;;;17.69;92.19;97453.50;5034569;28;20321;-67
2023/10/20 10:28:17;;;;;;;;;;;;;;;17.54;93.03;97463.44;5031313;28;19921;-68
2023/10/20 10:30:50;;;;;;;;;;;;;;;17.30;94.70;97464.84;5034606;28;20296;-67
2023/10/20 10:33:20;;;;;;;;;;;;;;;17.39;95.13;97470.56;5049911;28;19932;-68
2023/10/20 10:35:48;;;;;;;;;;;;;;;17.41;96.25;97470.13;5041324;28;19931;-68
2023/10/20 10:38:20;;;;;;;;;;;;;;;17.62;95.73;97464.03;5048423;28;19924;-66
2023/10/20 10:40:47;;;;;;;;;;;;;;;17.61;96.45;97462.44;5054738;28;19924;-68
2023/10/20 10:43:16;;;;;;;;;;;;;;;17.42;96.85;97457.78;5048498;28;19925;-66
2023/10/20 10:45:44;;;;;;;;;;;;;;;17.52;96.98;97451.19;5034532;28;19936;-67
2023/10/20 10:48:15;;;;;;;;;;;;;;;17.58;96.24;97449.41;5050904;28;19956;-66
2023/10/20 10:50:43;;;;;;;;;;;;;;;17.69;95.98;97461.84;5024569;28;20015;-71
2023/10/20 10:53:30;;;;;;;;;;;;;;;17.54;95.93;97462.69;5048639;28;19920;-68
2023/10/20 10:56:11;;;;;;;;;;;;;;;17.64;96.10;97456.78;5049770;28;19927;-69
2023/10/20 10:58:38;;;;;;;;;;;;;;;17.99;94.75;97458.59;5032280;28;20597;-65
2023/10/20 11:01:05;;;;;;;;;;;;;;;18.09;93.68;97465.09;5051026;28;20564;-66
2023/10/20 11:03:40;;;;;;;;;;;;;;;18.25;92.59;97462.25;5049885;28;20368;-68
2023/10/20 11:06:22;;;;;;;;;;;;;;;18.33;91.45;97465.59;5049511;28;20368;-66
2023/10/20 11:08:51;;;;;;;;;;;;;;;18.29;90.73;97462.13;5048077;28;19936;-68
2023/10/20 11:11:19;;;;;;;;;;;;;;;18.32;90.97;97462.03;5033098;28;19921;-65
2023/10/20 11:13:46;;;;;;;;;;;;;;;18.45;89.16;97457.28;5052386;28;19928;-66
2023/10/20 11:16:13;;;;;;;;;;;;;;;18.35;89.33;97458.34;5028239;28;19929;-66
2023/10/20 11:18:44;;;;;;;;;;;;;;;18.32;88.55;97461.25;5050114;28;19921;-67
2023/10/20 11:21:12;;;;;;;;;;;;;;;18.26;88.92;97461.00;5048614;28;20308;-66
2023/10/20 11:23:40;;;;;;;;;;;;;;;18.20;88.60;97459.22;5026912;28;19925;-66
2023/10/20 11:26:17;;;;;;;;;;;;;;;18.22;87.62;97457.53;5029719;28;19924;-66
2023/10/20 11:28:44;;;;;;;;;;;;;;;18.42;87.69;97454.59;5034098;28;20324;-66
2023/10/20 11:31:11;;;;;;;;;;;;;;;18.46;88.66;97449.69;5050796;28;19921;-65
2023/10/20 11:33:38;;;;;;;;;;;;;;;18.44;89.23;97449.38;5034365;28;20460;-65
2023/10/20 11:36:06;;;;;;;;;;;;;;;18.55;88.65;97438.69;5052259;28;19955;-66
2023/10/20 11:38:33;;;;;;;;;;;;;;;18.69;88.21;97450.16;5036100;28;19931;-67
2023/10/20 11:41:01;;;;;;;;;;;;;;;18.72;88.28;97440.13;5051133;28;20042;-65
2023/10/20 11:43:28;;;;;;;;;;;;;;;18.69;88.31;97435.44;5055576;28;19932;-66
2023/10/20 11:45:57;;;;;;;;;;;;;;;18.95;87.80;97437.00;5051147;28;19921;-66
2023/10/20 11:48:24;;;;;;;;;;;;;;;18.97;86.01;97432.50;5037264;28;19925;-68
2023/10/20 11:50:52;;;;;;;;;;;;;;;19.17;85.35;97423.88;5021375;28;19921;-66
2023/10/20 11:53:19;;;;;;;;;;;;;;;19.18;84.41;97428.22;5033247;28;21561;-67
2023/10/20 11:55:46;;;;;;;;;;;;;;;19.16;84.36;97432.72;5033818;28;19921;-68
2023/10/20 11:58:13;;;;;;;;;;;;;;;19.04;83.33;97425.91;5051590;28;19920;-66
2023/10/20 12:00:43;;;;;;;;;;;;;;;19.06;82.63;97431.81;5055288;28;19925;-66
2023/10/20 12:03:10;;;;;;;;;;;;;;;19.21;81.49;97440.50;5054020;28;19925;-66
2023/10/20 12:05:37;;;;;;;;;;;;;;;19.12;81.55;97426.47;5046393;28;19920;-66
2023/10/20 12:08:05;;;;;;;;;;;;;;;19.20;81.15;97424.97;5035220;28;20366;-66
2023/10/20 12:10:32;;;;;;;;;;;;;;;19.35;80.30;97435.25;5032335;28;19921;-66
2023/10/20 12:13:02;;;;;;;;;;;;;;;19.42;78.72;97425.84;5050613;28;19920;-67
2023/10/20 12:15:30;;;;;;;;;;;;;;;19.52;77.92;97428.28;5053678;28;19921;-67
2023/10/20 12:17:58;;;;;;;;;;;;;;;19.53;77.90;97421.44;5049493;28;19996;-67
2023/10/20 12:20:25;;;;;;;;;;;;;;;19.68;77.14;97424.53;5030005;28;19921;-68
2023/10/20 12:22:58;;;;;;;;;;;;;;;19.66;76.51;97416.63;5050001;28;19924;-68
2023/10/20 12:25:25;;;;;;;;;;;;;;;19.67;76.34;97420.94;5055741;28;19940;-67
2023/10/20 12:27:56;;;;;;;;;;;;;;;19.93;76.02;97414.00;5019119;28;19924;-70
2023/10/20 12:30:35;;;;;;;;;;;;;;;19.98;74.92;97410.63;5052709;28;19929;-70
2023/10/20 12:33:09;;;;;;;;;;;;;;;20.05;73.64;97403.97;5017189;28;19921;-69
2023/10/20 12:35:58;;;;;;;;;;;;;;;19.96;73.74;97401.16;5029459;28;20391;-71
2023/10/20 12:38:27;;;;;;;;;;;;;;;19.75;73.72;97411.06;5032858;28;20407;-68
2023/10/20 12:40:54;;;;;;;;;;;;;;;19.72;76.13;97400.81;5053109;28;20517;-69
2023/10/20 12:43:21;;;;;;;;;;;;;;;19.81;74.83;97400.09;5054134;28;19929;-70
2023/10/20 12:45:49;;;;;;;;;;;;;;;19.73;74.65;97396.03;5034923;28;19940;-69
2023/10/20 12:48:16;;;;;;;;;;;;;;;19.86;74.13;97405.88;5017743;28;19931;-70
2023/10/20 12:50:43;;;;;;;;;;;;;;;20.07;73.40;97399.50;5031183;28;19924;-70
2023/10/20 12:53:12;;;;;;;;;;;;;;;20.04;73.09;97399.63;5052240;28;19924;-69